Flight Track Log - Related Links

Times and Time Zones

All times are in EDT time to prevent confusion due to time zone crossing. See the N5167L flight status page for this flight to view local times or setup timezone preferences in your user account.

Time Position Orientation Groundspeed Altitude Reporting Facility
EDT Latitude Longitude Course Direction KTS MPH feet Rate Location/Type
Thu 11:07:09 AM 30.3517 -87.7439 324° Northwest 86 99 2,300  Level Houston Center
Thu 11:08:11 AM 30.3719 -87.7611 324° Northwest 88 101 2,800 484 Climbing Houston Center
Thu 11:09:13 AM 30.3939 -87.7867 315° West 91 105 3,300 435 Climbing Houston Center
Thu 11:10:15 AM 30.4119 -87.8086 314° West 92 106 3,700 387 Climbing Houston Center
Thu 11:11:17 AM 30.4297 -87.8308 313° West 93 107 4,100 339 Climbing Houston Center
Thu 11:12:19 AM 30.4478 -87.8519 315° West 93 107 4,400 194 Climbing Houston Center
Thu 11:13:21 AM 30.4697 -87.8772 315° West 101 116 4,500  Climbing Houston Center
Thu 11:14:23 AM 30.4969 -87.9083 315° West 109 125 4,400 -48 Descending Houston Center
Thu 11:15:26 AM 30.5197 -87.9328 317° Northwest 111 128 4,400  Level Houston Center
Thu 11:16:28 AM 30.5417 -87.9586 315° West 112 129 4,400  Level Houston Center
Thu 11:17:30 AM 30.5622 -87.9842 313° West 110 127 4,400 48 Level Houston Center
Thu 11:18:32 AM 30.5842 -88.0103 314° West 111 128 4,500 48 Climbing Houston Center
Thu 11:19:34 AM 30.6061 -88.0353 316° Northwest 111 128 4,500 -48 Level Houston Center
Thu 11:20:36 AM 30.6319 -88.0656 315° West 110 127 4,400  Descending Houston Center
Thu 11:21:38 AM 30.6522 -88.0908 313° West 109 125 4,500 48 Climbing Houston Center
Thu 11:22:40 AM 30.6747 -88.1153 317° Northwest 110 127 4,500  Level Houston Center
Thu 11:23:42 AM 30.6967 -88.1411 315° West 112 129 4,500  Level Houston Center
Thu 11:24:44 AM 30.7194 -88.1672 315° West 113 130 4,500  Level Houston Center
Thu 11:25:46 AM 30.7400 -88.1939 312° West 112 129 4,500 -48 Level Houston Center
Thu 11:26:49 AM 30.7664 -88.2261 314° West 113 130 4,400 -48 Descending Houston Center
Thu 11:27:51 AM 30.7894 -88.2514 317° Northwest 113 130 4,400  Level Houston Center
Thu 11:28:53 AM 30.8119 -88.2761 317° Northwest 113 130 4,400  Level Houston Center
Thu 11:29:55 AM 30.8328 -88.3025 313° West 111 128 4,400  Level Houston Center
Thu 11:30:57 AM 30.8533 -88.3286 313° West 110 127 4,400  Level Houston Center
Thu 11:31:59 AM 30.8761 -88.3536 317° Northwest 110 127 4,400  Level Houston Center
Thu 11:33:01 AM 30.9025 -88.3844 315° West 112 129 4,400  Level Houston Center
Thu 11:34:03 AM 30.9239 -88.4103 314° West 111 128 4,400 48 Level Houston Center
Thu 11:35:05 AM 30.9447 -88.4367 313° West 110 127 4,500 48 Climbing Houston Center
Thu 11:36:07 AM 30.9675 -88.4617 317° Northwest 111 128 4,500  Level Houston Center
Thu 11:37:10 AM 30.9886 -88.4867 315° West 110 127 4,500  Level Houston Center
Thu 11:38:12 AM 31.0086 -88.5153 309° West 111 128 4,500  Level Houston Center
Thu 11:39:14 AM 31.0300 -88.5422 313° West 113 130 4,500  Level Houston Center
Thu 11:40:16 AM 31.0567 -88.5714 317° Northwest 111 128 4,500  Level Houston Center
Thu 11:41:18 AM 31.0808 -88.5956 319° Northwest 112 129 4,500  Level Houston Center
Thu 11:42:20 AM 31.1039 -88.6186 319° Northwest 111 128 4,500 -48 Level Houston Center
Thu 11:43:22 AM 31.1250 -88.6444 314° West 110 127 4,400 -48 Descending Houston Center
Thu 11:44:25 AM 31.1475 -88.6686 317° Northwest 110 127 4,400  Level Houston Center
Thu 11:45:27 AM 31.1689 -88.6942 314° West 110 127 4,400 48 Level Houston Center
Thu 11:46:29 AM 31.1947 -88.7242 315° West 109 125 4,500 48 Climbing Houston Center
Thu 11:47:31 AM 31.2156 -88.7497 314° West 109 125 4,500  Level Houston Center
Thu 11:48:33 AM 31.2364 -88.7758 313° West 109 125 4,500  Level Houston Center
Thu 11:49:35 AM 31.2572 -88.8017 313° West 109 125 4,500  Level Houston Center
Thu 11:50:37 AM 31.2783 -88.8283 313° West 110 127 4,500  Level Houston Center
Thu 11:51:39 AM 31.2989 -88.8533 314° West 109 125 4,500 -48 Level Houston Center
Thu 11:52:42 AM 31.3244 -88.8839 314° West 109 125 4,400 -48 Descending Houston Center
Thu 11:53:44 AM 31.3458 -88.9089 315° West 109 125 4,400 48 Level Houston Center
Thu 11:54:46 AM 31.3672 -88.9339 315° West 108 124 4,500  Climbing Houston Center
Thu 11:55:48 AM 31.3881 -88.9597 313° West 109 125 4,400 -48 Descending Houston Center
Thu 11:56:50 AM 31.4086 -88.9869 312° West 110 127 4,400 48 Level Houston Center
Thu 11:57:52 AM 31.4322 -89.0197 310° West 110 127 4,500  Climbing Houston Center
Thu 11:58:54 AM 31.4506 -89.0467 309° West 108 124 4,400  Descending Houston Center
Thu 11:59:56 AM 31.4717 -89.0722 314° West 109 125 4,500  Climbing Houston Center
Thu 12:00:59 PM 31.4939 -89.0958 318° Northwest 108 124 4,400  Descending Houston Center
Thu 12:02:01 PM 31.5153 -89.1208 315° West 108 124 4,500  Climbing Houston Center
Thu 12:03:03 PM 31.5375 -89.1447 318° Northwest 108 124 4,400  Descending Houston Center
Thu 12:04:05 PM 31.5639 -89.1719 319° Northwest 107 123 4,500 48 Climbing Houston Center
Thu 12:05:07 PM 31.5842 -89.1967 314° West 106 122 4,500  Level Houston Center
Thu 12:06:09 PM 31.6042 -89.2222 313° West 106 122 4,500  Level Houston Center
Thu 12:07:11 PM 31.6283 -89.2444 322° Northwest 107 123 4,500  Level Houston Center
Thu 12:08:13 PM 31.6481 -89.2703 312° West 106 122 4,500  Level Houston Center
Thu 12:09:15 PM 31.6692 -89.2947 315° West 106 122 4,500  Level Houston Center
Thu 12:10:18 PM 31.6936 -89.3256 313° West 106 122 4,500  Level Houston Center
Thu 12:11:20 PM 31.7144 -89.3503 315° West 105 121 4,500  Level Houston Center
Thu 12:12:22 PM 31.7347 -89.3753 314° West 106 122 4,500  Level Houston Center
Thu 12:13:24 PM 31.7556 -89.3997 315° West 106 122 4,500  Level Houston Center
Thu 12:14:26 PM 31.7761 -89.4247 314° West 106 122 4,500  Level Houston Center
Thu 12:16:32 PM 31.8211 -89.4797 314° West 108 124 4,500  Level Memphis Center
Thu 12:17:32 PM 31.8422 -89.5039 316° Northwest 108 124 4,500 50 Level Memphis Center
Thu 12:18:32 PM 31.8611 -89.5283 312° West 108 124 4,600  Climbing Memphis Center
Thu 12:19:32 PM 31.8822 -89.5525 316° Northwest 108 124 4,500 -50 Descending Memphis Center
Thu 12:20:32 PM 31.9033 -89.5792 313° West 108 124 4,500  Level Memphis Center
Thu 12:21:32 PM 31.9264 -89.6011 321° Northwest 108 124 4,500 50 Level Memphis Center
Thu 12:22:32 PM 31.9475 -89.6228 319° Northwest 108 124 4,600  Climbing Memphis Center
Thu 12:23:32 PM 31.9664 -89.6472 312° West 108 124 4,500 -50 Descending Memphis Center
Thu 12:24:32 PM 31.9894 -89.6789 311° West 108 124 4,500  Level Memphis Center
Thu 12:25:32 PM 32.0083 -89.7008 315° West 108 124 4,500  Level Memphis Center
Thu 12:26:32 PM 32.0294 -89.7250 316° Northwest 108 124 4,500 50 Level Memphis Center
Thu 12:27:32 PM 32.0483 -89.7544 307° West 108 124 4,600 50 Climbing Memphis Center
Thu 12:28:32 PM 32.0650 -89.7789 309° West 108 124 4,600 200 Level Memphis Center
Thu 12:29:32 PM 32.0842 -89.8033 313° West 108 124 5,000 400 Climbing Memphis Center
Thu 12:30:32 PM 32.0986 -89.8253 308° West 103 119 5,400 350 Climbing Memphis Center
Thu 12:31:32 PM 32.1175 -89.8447 319° Northwest 103 119 5,700 350 Climbing Memphis Center
Thu 12:32:32 PM 32.1364 -89.8667 315° West 98 113 6,100 48 Climbing Memphis Center
Thu 12:34:00 PM 32.1672 -89.9045 314° West  Level FlightAware Approximate
Thu 12:41:00 PM 32.3139 -90.0857 314° West  Level FlightAware Approximate
Thu 12:42:00 PM 32.3348 -90.1116 314° West  Level FlightAware Approximate
Thu 12:43:00 PM 32.3557 -90.1376 314° West  Level FlightAware Approximate
Thu 12:44:00 PM 32.3767 -90.1635 314° West  Level FlightAware Approximate
Thu 12:45:00 PM 32.3976 -90.1895 314° West  Level FlightAware Approximate
Thu 12:46:00 PM 32.4185 -90.2155 314° West  Level FlightAware Approximate
Thu 12:47:00 PM 32.4394 -90.2414 314° West  Level FlightAware Approximate
Thu 12:48:00 PM 32.4603 -90.2674 314° West  Level FlightAware Approximate
Thu 12:48:20 PM 32.4653 -90.2661 314° West 111 128 6,500  Level Memphis Center
Thu 12:49:00 PM 32.4812 -90.2935 314° West  Level FlightAware Approximate
Thu 12:49:20 PM 32.4883 -90.2908 318° Northwest 111 128 6,500  Level Memphis Center
Thu 12:50:00 PM 32.5021 -90.3195 314° West  Level FlightAware Approximate
Thu 12:50:20 PM 32.5092 -90.3178 313° West 111 128 6,500  Level Memphis Center
Thu 12:51:00 PM 32.5230 -90.3455 314° West  Level FlightAware Approximate
Thu 12:51:20 PM 32.5300 -90.3425 315° West 106 122 6,500  Level Memphis Center
Thu 12:52:00 PM 32.5439 -90.3716 314° West  Level FlightAware Approximate
Thu 12:52:20 PM 32.5508 -90.3697 312° West 106 122 6,500  Level Memphis Center
Thu 12:53:20 PM 32.5717 -90.3919 318° Northwest 106 122 6,500  Level Memphis Center
Thu 12:54:20 PM 32.5883 -90.4189 306° West 106 122 6,500  Level Memphis Center
Thu 12:55:20 PM 32.6114 -90.4436 318° Northwest 106 122 6,500  Level Memphis Center
Thu 12:56:20 PM 32.6322 -90.4683 315° West 106 122 6,500  Level Memphis Center
Thu 12:57:20 PM 32.6553 -90.4931 318° Northwest 106 122 6,500  Level Memphis Center
Thu 12:58:20 PM 32.6739 -90.5178 312° West 106 122 6,500 -50 Level Memphis Center
Thu 12:59:20 PM 32.6947 -90.5450 312° West 106 122 6,400  Descending Memphis Center
Thu 01:00:20 PM 32.7114 -90.5719 306° West 106 122 6,500 50 Climbing Memphis Center
Thu 01:01:20 PM 32.7303 -90.5992 310° West 106 122 6,500  Level Memphis Center
Thu 01:02:20 PM 32.7511 -90.6242 315° West 106 122 6,500  Level Memphis Center
Thu 01:03:20 PM 32.7719 -90.6514 312° West 106 122 6,500  Level Memphis Center
Thu 01:04:20 PM 32.7925 -90.6761 315° West 106 122 6,500  Level Memphis Center
Thu 01:05:20 PM 32.8156 -90.7033 315° West 106 122 6,500  Level Memphis Center
Thu 01:06:20 PM 32.8342 -90.7281 312° West 106 122 6,500  Level Memphis Center
Thu 01:07:20 PM 32.8550 -90.7531 315° West 106 122 6,500  Level Memphis Center
Thu 01:08:20 PM 32.8800 -90.7778 320° Northwest 106 122 6,500  Level Memphis Center
Thu 01:09:20 PM 32.8986 -90.8050 309° West 106 122 6,500  Level Memphis Center
Thu 01:10:20 PM 32.9194 -90.8350 310° West 106 122 6,500  Level Memphis Center
Thu 01:11:20 PM 32.9403 -90.8622 312° West 106 122 6,500  Level Memphis Center
Thu 01:12:20 PM 32.9611 -90.8872 315° West 106 122 6,500  Level Memphis Center
Thu 01:13:20 PM 32.9839 -90.9144 315° West 111 128 6,500  Level Memphis Center
Thu 01:14:20 PM 33.0006 -90.9394 308° West 111 128 6,500 50 Level Memphis Center
Thu 01:15:20 PM 33.0233 -90.9642 318° Northwest 111 128 6,600  Climbing Memphis Center
Thu 01:16:20 PM 33.0439 -90.9942 309° West 111 128 6,500 -50 Descending Memphis Center
Thu 01:17:20 PM 33.0669 -91.0217 315° West 105 121 6,500  Level Memphis Center
Thu 01:18:20 PM 33.0856 -91.0467 312° West 105 121 6,500  Level Memphis Center
Thu 01:19:20 PM 33.1061 -91.0714 315° West 105 121 6,500  Level Memphis Center
Thu 01:20:20 PM 33.1269 -91.0989 312° West 110 127 6,500  Level Memphis Center
Thu 01:21:20 PM 33.1478 -91.1214 318° Northwest 110 127 6,500 -50 Level Memphis Center
Thu 01:22:21 PM 33.1706 -91.1464 317° Northwest 110 127 6,400 -50 Descending Memphis Center
Thu 01:23:20 PM 33.1911 -91.1739 312° West 110 127 6,400 -50 Level Memphis Center
Thu 01:24:20 PM 33.2119 -91.2014 312° West 110 127 6,300 -100 Descending Memphis Center
Thu 01:25:20 PM 33.2325 -91.2289 312° West 110 127 6,200 -100 Descending Memphis Center

Login

Don't have an account? Register now (free) for customized features, flight alerts, and more!